createdAt,value
2023-02-08T00:00:07.348Z,-2.90
2023-02-08T00:06:10.500Z,-2.90
2023-02-08T00:12:12.399Z,-2.90
2023-02-08T00:18:14.816Z,-3.00
2023-02-08T00:24:16.738Z,-3.00
2023-02-08T00:30:18.740Z,-3.00
2023-02-08T00:36:20.849Z,-3.00
2023-02-08T00:42:22.993Z,-3.00
2023-02-08T00:48:26.801Z,-3.00
2023-02-08T00:54:28.742Z,-3.00
2023-02-08T01:00:30.692Z,-3.00
2023-02-08T01:06:32.780Z,-3.10
2023-02-08T01:12:34.672Z,-3.10
2023-02-08T01:18:37.378Z,-3.10
2023-02-08T01:24:39.285Z,-3.10
2023-02-08T01:30:41.537Z,-3.20
2023-02-08T01:36:43.729Z,-3.20
2023-02-08T01:42:45.610Z,-3.20
2023-02-08T01:48:48.614Z,-3.20
2023-02-08T01:55:13.682Z,-3.30
2023-02-08T02:01:17.002Z,-3.40
2023-02-08T02:07:22.599Z,-3.40
2023-02-08T02:13:27.246Z,-3.50
2023-02-08T02:19:37.981Z,-3.50
2023-02-08T02:26:23.101Z,-3.50
2023-02-08T02:32:51.938Z,-3.50
2023-02-08T02:39:18.255Z,-3.60
2023-02-08T02:45:58.074Z,-3.60
2023-02-08T02:52:12.408Z,-3.70
2023-02-08T02:58:17.892Z,-3.80
2023-02-08T03:04:39.633Z,-3.90
2023-02-08T03:11:20.850Z,-3.90
2023-02-08T03:17:29.237Z,-3.90
2023-02-08T03:23:43.954Z,-3.90
2023-02-08T03:30:11.150Z,-3.90
2023-02-08T03:36:58.601Z,-3.90
2023-02-08T03:43:09.797Z,-3.90
2023-02-08T03:49:27.726Z,-3.90
2023-02-08T03:55:34.380Z,-3.90
2023-02-08T04:01:47.332Z,-3.90
2023-02-08T04:07:49.259Z,-3.90
2023-02-08T04:13:51.142Z,-3.90
2023-02-08T04:19:53.012Z,-4.00
2023-02-08T04:25:54.938Z,-4.00
2023-02-08T04:31:56.846Z,-4.00
2023-02-08T04:37:58.782Z,-4.00
2023-02-08T04:44:00.724Z,-4.00
2023-02-08T04:50:03.750Z,-3.90
2023-02-08T04:56:05.882Z,-3.80
2023-02-08T05:02:07.774Z,-3.90
2023-02-08T05:08:09.744Z,-3.90
2023-02-08T05:14:11.653Z,-4.00
2023-02-08T05:20:14.151Z,-4.00
2023-02-08T05:26:16.425Z,-3.90
2023-02-08T05:32:18.337Z,-3.80
2023-02-08T05:38:20.222Z,-3.80
2023-02-08T05:44:22.353Z,-3.80
2023-02-08T05:50:24.293Z,-3.80
2023-02-08T05:56:26.202Z,-3.90
2023-02-08T06:02:28.098Z,-3.90
2023-02-08T06:08:30.003Z,-3.90
2023-02-08T06:14:31.928Z,-3.90
2023-02-08T06:20:34.053Z,-3.80
2023-02-08T06:26:35.978Z,-3.90
2023-02-08T06:32:38.036Z,-3.90
2023-02-08T06:38:39.997Z,-3.90
2023-02-08T06:44:53.936Z,-3.90
2023-02-08T06:50:56.709Z,-3.80
2023-02-08T06:56:58.605Z,-3.70
2023-02-08T07:03:00.867Z,-3.70
2023-02-08T07:09:04.197Z,-3.70
2023-02-08T07:15:06.496Z,-3.70
2023-02-08T07:21:08.666Z,-3.60
2023-02-08T07:27:13.097Z,-3.50
2023-02-08T07:33:14.980Z,-3.50
2023-02-08T07:39:16.892Z,-3.40
2023-02-08T07:45:18.890Z,-3.30
2023-02-08T07:51:20.825Z,-3.20
2023-02-08T07:57:23.431Z,-3.10
2023-02-08T08:03:25.371Z,-3.00
2023-02-08T08:09:27.291Z,-2.90
2023-02-08T08:15:29.248Z,-2.80
2023-02-08T08:21:31.165Z,-2.70
2023-02-08T08:27:33.141Z,-2.60
2023-02-08T08:33:35.024Z,-2.60
2023-02-08T08:39:37.239Z,-2.50
2023-02-08T08:45:39.121Z,-2.40
2023-02-08T08:51:41.060Z,-2.30
2023-02-08T08:57:42.968Z,-2.10
2023-02-08T09:03:44.935Z,-2.00
2023-02-08T09:09:48.034Z,-1.80
2023-02-08T09:15:50.036Z,-1.60
2023-02-08T09:21:52.021Z,-1.40
2023-02-08T09:27:54.012Z,-1.00
2023-02-08T09:33:59.808Z,-0.60
2023-02-08T09:40:01.842Z,-0.40
2023-02-08T09:46:13.667Z,-0.30
2023-02-08T09:52:21.734Z,0.00
2023-02-08T09:59:02.303Z,0.20
2023-02-08T10:05:11.403Z,0.70
2023-02-08T10:11:32.125Z,1.50
2023-02-08T10:18:11.962Z,3.00
2023-02-08T10:25:16.285Z,3.70
2023-02-08T10:31:58.372Z,3.30
2023-02-08T10:38:00.371Z,2.70
2023-02-08T10:44:07.910Z,2.50
2023-02-08T10:50:39.238Z,2.30
2023-02-08T10:56:58.171Z,2.20
2023-02-08T11:03:25.571Z,2.20
2023-02-08T11:09:29.557Z,2.10
2023-02-08T11:15:39.924Z,2.20
2023-02-08T11:21:42.245Z,2.30
2023-02-08T11:27:49.233Z,2.40
2023-02-08T11:34:11.352Z,2.50
2023-02-08T11:40:31.784Z,2.70
2023-02-08T11:46:36.430Z,2.90
2023-02-08T11:52:43.758Z,3.70
2023-02-08T11:59:14.981Z,4.60
2023-02-08T12:05:44.810Z,4.90
2023-02-08T12:11:52.702Z,4.50
2023-02-08T12:18:07.543Z,4.10
2023-02-08T12:24:31.330Z,4.10
2023-02-08T12:30:37.593Z,4.30
2023-02-08T12:37:29.013Z,4.50
2023-02-08T12:43:51.466Z,5.40
2023-02-08T12:50:03.866Z,6.30
2023-02-08T12:56:23.266Z,7.10
2023-02-08T13:03:19.039Z,8.00
2023-02-08T13:09:35.902Z,8.40
2023-02-08T13:15:48.989Z,8.50
2023-02-08T13:21:53.978Z,8.00
2023-02-08T13:27:59.734Z,7.60
2023-02-08T13:34:26.703Z,7.80
2023-02-08T13:40:35.198Z,7.60
2023-02-08T13:46:49.141Z,7.30
2023-02-08T13:52:52.470Z,8.00
2023-02-08T13:59:01.195Z,8.50
2023-02-08T14:05:34.552Z,9.50
2023-02-08T14:12:05.699Z,10.10
2023-02-08T14:18:27.050Z,9.40
2023-02-08T14:24:49.142Z,8.40
2023-02-08T14:30:54.737Z,7.40
2023-02-08T14:37:29.809Z,6.90
2023-02-08T14:43:39.227Z,6.10
2023-02-08T14:49:45.310Z,5.90
2023-02-08T14:56:01.094Z,5.30
2023-02-08T15:02:14.875Z,4.90
2023-02-08T15:08:21.031Z,5.30
2023-02-08T15:14:23.047Z,5.60
2023-02-08T15:20:29.638Z,5.00
2023-02-08T15:26:31.538Z,4.40
2023-02-08T15:32:33.940Z,4.10
2023-02-08T15:38:38.807Z,3.60
2023-02-08T15:44:44.422Z,3.00
2023-02-08T15:50:46.432Z,2.60
2023-02-08T15:56:58.993Z,2.00
2023-02-08T16:03:20.345Z,1.70
2023-02-08T16:09:28.461Z,1.40
2023-02-08T16:15:44.890Z,1.10
2023-02-08T16:21:47.397Z,0.80
2023-02-08T16:27:49.674Z,0.60
2023-02-08T16:34:01.216Z,0.20
2023-02-08T16:40:28.583Z,0.00
2023-02-08T16:46:30.604Z,-0.20
2023-02-08T16:52:33.995Z,-0.40
2023-02-08T16:58:35.891Z,-0.60
2023-02-08T17:04:37.811Z,-0.70
2023-02-08T17:10:39.721Z,-0.90
2023-02-08T17:16:41.856Z,-1.00
2023-02-08T17:22:45.019Z,-0.90
2023-02-08T17:28:47.038Z,-0.80
2023-02-08T17:34:48.953Z,-0.90
2023-02-08T17:40:50.907Z,-1.00
2023-02-08T17:46:52.838Z,-1.00
2023-02-08T17:52:55.630Z,-0.80
2023-02-08T17:59:00.594Z,-0.70
2023-02-08T18:05:02.571Z,-0.60
2023-02-08T18:11:07.991Z,-0.60
2023-02-08T18:17:10.139Z,-0.30
2023-02-08T18:23:12.937Z,-0.30
2023-02-08T18:29:14.976Z,-0.50
2023-02-08T18:35:17.206Z,-0.50
2023-02-08T18:41:26.057Z,-0.60
2023-02-08T18:47:27.966Z,-0.60
2023-02-08T18:53:33.560Z,-0.50
2023-02-08T18:59:36.845Z,-0.60
2023-02-08T19:05:39.120Z,-0.70
2023-02-08T19:11:41.640Z,-0.70
2023-02-08T19:17:44.109Z,-0.80
2023-02-08T19:23:48.155Z,-0.90
2023-02-08T19:29:52.214Z,-1.00
2023-02-08T19:35:54.131Z,-0.90
2023-02-08T19:41:58.657Z,-0.90
2023-02-08T19:48:01.951Z,-0.90
2023-02-08T19:54:09.251Z,-1.10
2023-02-08T20:00:22.922Z,-1.20
2023-02-08T20:06:30.693Z,-1.10
2023-02-08T20:12:32.587Z,-1.10
2023-02-08T20:18:34.479Z,-1.20
2023-02-08T20:24:36.382Z,-1.40
2023-02-08T20:30:40.814Z,-1.50
2023-02-08T20:37:05.327Z,-1.50
2023-02-08T20:43:08.511Z,-1.50
2023-02-08T20:49:21.348Z,-1.60
2023-02-08T20:55:23.251Z,-1.60
2023-02-08T21:01:28.058Z,-1.80
2023-02-08T21:07:29.969Z,-1.90
2023-02-08T21:13:32.034Z,-2.00
2023-02-08T21:19:33.940Z,-2.00
2023-02-08T21:25:44.422Z,-2.10
2023-02-08T21:31:47.356Z,-2.20
2023-02-08T21:37:49.410Z,-2.30
2023-02-08T21:43:54.481Z,-2.30
2023-02-08T21:50:14.683Z,-2.40
2023-02-08T21:56:16.604Z,-2.50
2023-02-08T22:02:25.918Z,-2.50
2023-02-08T22:08:28.139Z,-2.50
2023-02-08T22:14:30.015Z,-2.50
2023-02-08T22:20:32.217Z,-2.50
2023-02-08T22:26:34.153Z,-2.70
2023-02-08T22:32:39.330Z,-2.70
2023-02-08T22:38:41.269Z,-2.80
2023-02-08T22:44:45.244Z,-2.80
2023-02-08T22:50:47.460Z,-2.70
2023-02-08T22:56:49.686Z,-2.70
2023-02-08T23:02:51.645Z,-2.70
2023-02-08T23:08:53.748Z,-2.80
2023-02-08T23:14:56.017Z,-2.80
2023-02-08T23:20:58.010Z,-2.90
2023-02-08T23:27:00.138Z,-2.90
2023-02-08T23:33:02.022Z,-3.00
2023-02-08T23:39:04.435Z,-3.00
2023-02-08T23:45:07.297Z,-3.10
2023-02-08T23:51:09.786Z,-3.10
2023-02-08T23:57:11.845Z,-3.20
